createdAt,value
2023-08-25T00:02:24.701Z,99986.04
2023-08-25T00:04:52.093Z,99991.35
2023-08-25T00:07:19.484Z,99989.02
2023-08-25T00:09:47.073Z,99988.42
2023-08-25T00:12:14.330Z,99984.59
2023-08-25T00:14:41.574Z,99981.64
2023-08-25T00:17:09.575Z,99978.10
2023-08-25T00:19:36.921Z,99973.88
2023-08-25T00:22:04.668Z,99967.27
2023-08-25T00:24:33.818Z,99963.45
2023-08-25T00:27:01.331Z,99958.52
2023-08-25T00:29:28.633Z,99952.91
2023-08-25T00:31:55.957Z,99953.80
2023-08-25T00:34:23.245Z,99940.27
2023-08-25T00:36:50.581Z,99935.20
2023-08-25T00:39:17.843Z,99931.11
2023-08-25T00:41:45.193Z,99928.55
2023-08-25T00:44:12.663Z,99926.69
2023-08-25T00:46:40.072Z,99930.58
2023-08-25T00:49:07.369Z,99931.45
2023-08-25T00:51:35.097Z,99922.87
2023-08-25T00:54:02.351Z,99918.45
2023-08-25T00:56:29.632Z,99914.98
2023-08-25T00:58:56.997Z,99916.48
2023-08-25T01:01:24.492Z,99904.84
2023-08-25T01:03:52.614Z,99899.15
2023-08-25T01:06:19.918Z,99898.77
2023-08-25T01:08:47.240Z,99901.78
2023-08-25T01:11:38.015Z,99902.72
2023-08-25T01:14:32.154Z,99914.48
2023-08-25T01:17:12.719Z,99909.15
2023-08-25T01:19:56.110Z,99910.23
2023-08-25T01:22:29.160Z,99913.61
2023-08-25T01:25:03.145Z,99918.77
2023-08-25T01:27:30.453Z,99926.00
2023-08-25T01:29:57.734Z,99925.02
2023-08-25T01:34:53.255Z,99920.36
2023-08-25T01:37:30.067Z,99917.85
2023-08-25T01:40:00.299Z,99917.06
2023-08-25T01:42:27.863Z,99914.31
2023-08-25T01:44:55.157Z,99911.73
2023-08-25T01:47:24.261Z,99910.52
2023-08-25T01:49:51.621Z,99909.39
2023-08-25T01:52:21.048Z,99911.30
2023-08-25T01:54:51.428Z,99911.73
2023-08-25T01:57:18.682Z,99908.92
2023-08-25T01:59:46.551Z,99918.15
2023-08-25T02:02:13.889Z,99918.05
2023-08-25T02:04:41.152Z,99913.23
2023-08-25T02:07:08.561Z,99913.21
2023-08-25T02:09:35.858Z,99912.98
2023-08-25T02:12:03.366Z,99908.08
2023-08-25T02:14:30.667Z,99909.08
2023-08-25T02:16:57.930Z,99913.13
2023-08-25T02:19:25.216Z,99907.59
2023-08-25T02:21:54.354Z,99912.11
2023-08-25T02:24:21.595Z,99909.55
2023-08-25T02:26:50.480Z,99904.16
2023-08-25T02:29:17.758Z,99899.29
2023-08-25T02:31:45.112Z,99901.81
2023-08-25T02:34:12.500Z,99895.96
2023-08-25T02:36:40.368Z,99896.66
2023-08-25T02:39:07.665Z,99903.02
2023-08-25T02:41:35.604Z,99907.53
2023-08-25T02:44:04.544Z,99907.30
2023-08-25T02:46:33.370Z,99910.83
2023-08-25T02:49:00.685Z,99909.48
2023-08-25T02:51:27.965Z,99913.66
2023-08-25T02:53:55.469Z,99914.52
2023-08-25T02:56:22.853Z,99914.84
2023-08-25T02:58:50.162Z,99912.53
2023-08-25T03:01:17.493Z,99912.56
2023-08-25T03:03:46.547Z,99915.98
2023-08-25T03:06:14.966Z,99915.67
2023-08-25T03:08:43.166Z,99921.55
2023-08-25T03:11:10.793Z,99919.70
2023-08-25T03:13:38.529Z,99920.27
2023-08-25T03:16:08.414Z,99918.91
2023-08-25T03:18:38.351Z,99919.31
2023-08-25T03:22:04.215Z,99940.52
2023-08-25T03:24:32.620Z,99940.10
2023-08-25T03:26:59.965Z,99939.98
2023-08-25T03:29:27.714Z,99942.27
2023-08-25T03:31:54.983Z,99942.05
2023-08-25T03:34:22.271Z,99942.71
2023-08-25T03:36:49.574Z,99944.09
2023-08-25T03:39:18.621Z,99947.58
2023-08-25T03:41:48.907Z,99948.29
2023-08-25T03:44:16.668Z,99948.94
2023-08-25T03:46:44.035Z,99951.23
2023-08-25T03:49:11.795Z,99953.39
2023-08-25T03:51:39.285Z,99950.85
2023-08-25T03:54:08.972Z,99957.65
2023-08-25T03:56:36.217Z,99959.98
2023-08-25T03:59:03.537Z,99966.38
2023-08-25T04:01:30.798Z,99966.55
2023-08-25T04:03:58.538Z,99961.21
2023-08-25T04:06:28.050Z,99960.20
2023-08-25T04:08:55.542Z,99955.02
2023-08-25T04:11:23.046Z,99950.27
2023-08-25T04:13:50.309Z,99953.19
2023-08-25T04:16:17.621Z,99955.28
2023-08-25T04:18:46.466Z,99958.09
2023-08-25T04:21:13.849Z,99959.04
2023-08-25T04:23:43.439Z,99959.36
2023-08-25T04:26:10.746Z,99957.64
2023-08-25T04:28:38.828Z,99960.00
2023-08-25T04:31:06.097Z,99958.27
2023-08-25T04:33:37.296Z,99954.34
2023-08-25T04:36:05.480Z,99950.08
2023-08-25T04:38:32.788Z,99943.11
2023-08-25T04:41:00.418Z,99941.79
2023-08-25T04:43:27.703Z,99934.91
2023-08-25T04:45:55.009Z,99933.75
2023-08-25T04:48:25.619Z,99929.34
2023-08-25T04:50:52.917Z,99925.98
2023-08-25T04:53:20.451Z,99927.85
2023-08-25T04:55:48.448Z,99925.69
2023-08-25T04:58:16.584Z,99930.56
2023-08-25T05:00:44.002Z,99932.33
2023-08-25T05:03:11.828Z,99930.20
2023-08-25T05:05:40.204Z,99928.48
2023-08-25T05:08:08.888Z,99927.98
2023-08-25T05:10:36.184Z,99930.83
2023-08-25T05:13:04.626Z,99936.13
2023-08-25T05:15:33.349Z,99926.73
2023-08-25T05:18:01.103Z,99926.23
2023-08-25T05:20:28.610Z,99922.67
2023-08-25T05:22:57.114Z,99915.47
2023-08-25T05:25:24.735Z,99901.76
2023-08-25T05:27:52.399Z,99903.94
2023-08-25T05:30:20.578Z,99905.70
2023-08-25T05:32:49.056Z,99905.64
2023-08-25T05:35:30.326Z,99906.27
2023-08-25T05:37:58.528Z,99908.91
2023-08-25T05:40:25.924Z,99917.32
2023-08-25T05:42:54.273Z,99917.42
2023-08-25T05:45:23.047Z,99913.93
2023-08-25T05:47:50.961Z,99912.74
2023-08-25T05:50:18.648Z,99911.28
2023-08-25T05:52:48.503Z,99905.48
2023-08-25T05:55:16.680Z,99906.90
2023-08-25T05:57:44.166Z,99908.77
2023-08-25T06:00:12.426Z,99905.84
2023-08-25T06:02:43.788Z,99899.25
2023-08-25T06:05:11.282Z,99894.61
2023-08-25T06:07:38.656Z,99895.13
2023-08-25T06:10:07.349Z,99893.85
2023-08-25T06:12:34.716Z,99894.90
2023-08-25T06:15:01.997Z,99897.02
2023-08-25T06:17:29.321Z,99894.83
2023-08-25T06:19:56.675Z,99894.75
2023-08-25T06:22:23.947Z,99894.84
2023-08-25T06:24:51.229Z,99891.84
2023-08-25T06:27:19.588Z,99893.92
2023-08-25T06:29:47.209Z,99892.68
2023-08-25T06:32:15.592Z,99893.00
2023-08-25T06:34:44.080Z,99891.10
2023-08-25T06:37:11.394Z,99886.11
2023-08-25T06:39:38.748Z,99880.20
2023-08-25T06:42:06.389Z,99875.37
2023-08-25T06:44:33.725Z,99873.60
2023-08-25T06:47:01.141Z,99874.40
2023-08-25T06:49:28.500Z,99877.01
2023-08-25T06:51:55.741Z,99883.93
2023-08-25T06:54:26.702Z,99881.16
2023-08-25T06:56:54.236Z,99880.51
2023-08-25T06:59:21.512Z,99876.90
2023-08-25T07:01:48.800Z,99881.58
2023-08-25T07:04:17.425Z,99882.34
2023-08-25T07:06:44.818Z,99881.24
2023-08-25T07:09:14.355Z,99878.91
2023-08-25T07:11:41.715Z,99878.15
2023-08-25T07:14:08.960Z,99877.13
2023-08-25T07:16:36.565Z,99874.45
2023-08-25T07:19:04.060Z,99873.86
2023-08-25T07:21:31.587Z,99879.95
2023-08-25T07:23:58.866Z,99877.37
2023-08-25T07:26:29.177Z,99876.03
2023-08-25T07:28:56.471Z,99877.38
2023-08-25T07:31:23.927Z,99883.27
2023-08-25T07:33:51.291Z,99878.21
2023-08-25T07:36:19.273Z,99880.92
2023-08-25T07:38:46.719Z,99883.46
2023-08-25T07:41:17.117Z,99877.05
2023-08-25T07:43:47.042Z,99877.06
2023-08-25T07:46:14.685Z,99874.11
2023-08-25T07:48:42.056Z,99871.20
2023-08-25T07:51:09.392Z,99875.18
2023-08-25T07:53:36.712Z,99869.96
2023-08-25T07:56:04.365Z,99869.36
2023-08-25T07:58:31.713Z,99868.20
2023-08-25T08:00:59.813Z,99865.12
2023-08-25T08:03:27.233Z,99860.11
2023-08-25T08:05:54.622Z,99860.21
2023-08-25T08:08:21.935Z,99856.52
2023-08-25T08:10:49.274Z,99854.72
2023-08-25T08:13:16.525Z,99857.91
2023-08-25T08:15:43.855Z,99862.21
2023-08-25T08:18:11.428Z,99866.16
2023-08-25T08:20:38.814Z,99866.15
2023-08-25T08:23:09.251Z,99868.83
2023-08-25T08:25:37.895Z,99869.91
2023-08-25T08:28:05.345Z,99872.17
2023-08-25T08:30:32.675Z,99869.36
2023-08-25T08:33:00.057Z,99871.04
2023-08-25T08:35:27.428Z,99874.16
2023-08-25T08:37:55.174Z,99874.45
2023-08-25T08:40:22.756Z,99875.48
2023-08-25T08:42:51.198Z,99876.34
2023-08-25T08:45:21.722Z,99882.04
2023-08-25T08:47:49.131Z,99884.91
2023-08-25T08:50:16.454Z,99886.17
2023-08-25T08:52:43.885Z,99882.83
2023-08-25T08:55:11.411Z,99884.12
2023-08-25T08:57:38.716Z,99881.77
2023-08-25T09:00:13.183Z,99881.16
2023-08-25T09:02:44.789Z,99875.64
2023-08-25T09:05:12.955Z,99873.01
2023-08-25T09:07:40.354Z,99872.38
2023-08-25T09:10:09.194Z,99869.23
2023-08-25T09:12:36.624Z,99868.05
2023-08-25T09:15:04.918Z,99868.48
2023-08-25T09:17:33.453Z,99868.45
2023-08-25T09:20:09.100Z,99867.23
2023-08-25T09:22:36.508Z,99869.81
2023-08-25T09:25:04.062Z,99865.89
2023-08-25T09:27:31.635Z,99868.20
2023-08-25T09:30:06.796Z,99865.93
2023-08-25T09:32:35.176Z,99867.52
2023-08-25T09:35:15.829Z,99862.39
2023-08-25T09:37:43.624Z,99862.28
2023-08-25T09:40:15.739Z,99863.50
2023-08-25T09:42:43.142Z,99863.86
2023-08-25T09:45:12.021Z,99862.71
2023-08-25T09:47:39.473Z,99864.61
2023-08-25T09:50:07.288Z,99864.13
2023-08-25T09:52:37.812Z,99868.55
2023-08-25T09:55:05.943Z,99866.84
2023-08-25T09:57:33.181Z,99867.59
2023-08-25T10:00:00.457Z,99861.70
2023-08-25T10:02:27.747Z,99865.09
2023-08-25T10:04:56.311Z,99867.83
2023-08-25T10:07:23.932Z,99867.99
2023-08-25T10:09:51.203Z,99864.08
2023-08-25T10:12:18.847Z,99862.52
2023-08-25T10:14:46.368Z,99868.46
2023-08-25T10:17:14.575Z,99865.12
2023-08-25T10:19:41.873Z,99864.36
2023-08-25T10:22:09.121Z,99864.58
2023-08-25T10:24:36.528Z,99863.41
2023-08-25T10:27:03.824Z,99869.86
2023-08-25T10:29:31.914Z,99870.91
2023-08-25T10:32:00.900Z,99868.30
2023-08-25T10:34:36.690Z,99870.04
2023-08-25T10:37:11.773Z,99870.79
2023-08-25T10:39:45.987Z,99866.55
2023-08-25T10:42:13.520Z,99867.71
2023-08-25T10:44:42.303Z,99868.48
2023-08-25T10:47:10.225Z,99869.52
2023-08-25T10:49:41.016Z,99872.41
2023-08-25T10:52:18.178Z,99878.72
2023-08-25T10:54:46.252Z,99875.90
2023-08-25T10:57:20.431Z,99876.95
2023-08-25T10:59:53.762Z,99875.09
2023-08-25T11:02:35.056Z,99875.17
2023-08-25T11:05:27.560Z,99885.98
2023-08-25T11:07:55.238Z,99883.82
2023-08-25T11:10:23.215Z,99878.94
2023-08-25T11:13:09.467Z,99876.39
2023-08-25T11:15:38.758Z,99877.39
2023-08-25T11:18:09.589Z,99877.41
2023-08-25T11:20:45.084Z,99870.66
2023-08-25T11:23:18.944Z,99872.08
2023-08-25T11:25:48.383Z,99869.58
2023-08-25T11:28:15.721Z,99868.32
2023-08-25T11:30:43.058Z,99870.16
2023-08-25T11:33:10.626Z,99872.91
2023-08-25T11:35:38.067Z,99874.70
2023-08-25T11:38:05.380Z,99870.59
2023-08-25T11:40:32.749Z,99872.42
2023-08-25T11:43:00.061Z,99870.89
2023-08-25T11:45:29.280Z,99866.48
2023-08-25T11:47:57.359Z,99863.98
2023-08-25T11:50:28.208Z,99870.60
2023-08-25T11:52:59.703Z,99868.19
2023-08-25T11:55:33.629Z,99861.54
2023-08-25T11:58:07.286Z,99861.81
2023-08-25T12:00:39.193Z,99867.40
2023-08-25T12:03:07.589Z,99868.98
2023-08-25T12:05:36.535Z,99868.60
2023-08-25T12:08:05.613Z,99864.11
2023-08-25T12:10:36.869Z,99859.77
2023-08-25T12:13:04.581Z,99865.58
2023-08-25T12:15:46.562Z,99865.42
2023-08-25T12:18:14.518Z,99864.23
2023-08-25T12:20:45.338Z,99863.30
2023-08-25T12:23:12.745Z,99860.74
2023-08-25T12:25:43.580Z,99857.73
2023-08-25T12:28:12.127Z,99859.88
2023-08-25T12:30:39.544Z,99861.64
2023-08-25T12:33:07.344Z,99866.70
2023-08-25T12:35:34.841Z,99864.71
2023-08-25T12:38:02.274Z,99865.31
2023-08-25T12:40:29.856Z,99864.05
2023-08-25T12:42:57.177Z,99859.19
2023-08-25T12:45:24.924Z,99861.48
2023-08-25T12:47:53.255Z,99862.75
2023-08-25T12:50:20.944Z,99861.20
2023-08-25T12:52:48.380Z,99864.73
2023-08-25T12:55:21.218Z,99862.89
2023-08-25T12:57:54.651Z,99857.84
2023-08-25T13:00:22.241Z,99862.54
2023-08-25T13:02:52.458Z,99855.29
2023-08-25T13:05:21.668Z,99856.59
2023-08-25T13:07:49.008Z,99853.20
2023-08-25T13:10:16.315Z,99854.44
2023-08-25T13:12:43.596Z,99853.86
2023-08-25T13:15:12.975Z,99860.27
2023-08-25T13:17:41.590Z,99860.38
2023-08-25T13:20:09.821Z,99858.19
2023-08-25T13:22:37.617Z,99857.11
2023-08-25T13:25:05.598Z,99856.97
2023-08-25T13:27:35.688Z,99858.12
2023-08-25T13:30:03.438Z,99859.51
2023-08-25T13:32:30.729Z,99859.23
2023-08-25T13:34:58.070Z,99858.85
2023-08-25T13:37:25.397Z,99859.57
2023-08-25T13:39:53.646Z,99859.36
2023-08-25T13:42:21.193Z,99859.19
2023-08-25T13:44:48.619Z,99860.71
2023-08-25T13:47:15.893Z,99871.09
2023-08-25T13:49:43.372Z,99871.48
2023-08-25T13:52:10.764Z,99872.38
2023-08-25T13:54:38.458Z,99871.95
2023-08-25T13:57:06.397Z,99873.58
2023-08-25T13:59:34.234Z,99872.98
2023-08-25T14:02:01.832Z,99873.09
2023-08-25T14:04:29.642Z,99871.68
2023-08-25T14:06:56.945Z,99873.61
2023-08-25T14:09:24.290Z,99869.15
2023-08-25T14:11:51.982Z,99867.36
2023-08-25T14:14:19.313Z,99869.75
2023-08-25T14:16:46.746Z,99871.43
2023-08-25T14:19:14.375Z,99869.05
2023-08-25T14:21:41.716Z,99873.10
2023-08-25T14:24:09.026Z,99873.10
2023-08-25T14:26:36.315Z,99879.83
2023-08-25T14:29:04.996Z,99879.14
2023-08-25T14:31:32.366Z,99880.55
2023-08-25T14:34:00.458Z,99884.34
2023-08-25T14:36:27.816Z,99882.69
2023-08-25T14:38:55.154Z,99885.48
2023-08-25T14:41:22.650Z,99880.48
2023-08-25T14:43:50.100Z,99879.61
2023-08-25T14:46:17.448Z,99885.95
2023-08-25T14:48:47.653Z,99884.09
2023-08-25T14:51:15.675Z,99880.52
2023-08-25T14:53:43.456Z,99884.41
2023-08-25T14:56:14.387Z,99878.94
2023-08-25T14:58:41.711Z,99880.80
2023-08-25T15:01:09.189Z,99884.30
2023-08-25T15:03:36.519Z,99879.88
2023-08-25T15:06:04.283Z,99878.86
2023-08-25T15:08:31.719Z,99879.58
2023-08-25T15:10:59.101Z,99880.33
2023-08-25T15:13:26.737Z,99881.48
2023-08-25T15:15:54.493Z,99879.12
2023-08-25T15:18:21.934Z,99878.79
2023-08-25T15:21:02.961Z,99878.70
2023-08-25T15:23:30.522Z,99878.09
2023-08-25T15:25:58.750Z,99884.71
2023-08-25T15:28:27.945Z,99889.31
2023-08-25T15:31:05.998Z,99891.65
2023-08-25T15:33:37.363Z,99889.88
2023-08-25T15:39:00.038Z,99912.66
2023-08-25T15:41:27.351Z,99914.84
2023-08-25T15:43:57.377Z,99909.81
2023-08-25T15:46:25.087Z,99909.22
2023-08-25T15:48:52.456Z,99906.90
2023-08-25T15:51:19.710Z,99905.16
2023-08-25T15:53:47.083Z,99904.20
2023-08-25T15:56:14.417Z,99905.30
2023-08-25T15:58:42.172Z,99907.14
2023-08-25T16:01:10.806Z,99911.23
2023-08-25T16:03:38.239Z,99914.92
2023-08-25T16:06:06.186Z,99916.45
2023-08-25T16:08:33.600Z,99914.54
2023-08-25T16:11:05.776Z,99918.16
2023-08-25T16:13:35.541Z,99924.69
2023-08-25T16:16:04.331Z,99924.41
2023-08-25T16:18:32.732Z,99924.64
2023-08-25T16:21:04.013Z,99924.30
2023-08-25T16:23:34.113Z,99926.97
2023-08-25T16:26:01.440Z,99929.17
2023-08-25T16:28:29.611Z,99930.53
2023-08-25T16:31:04.899Z,99938.46
2023-08-25T16:33:33.223Z,99938.14
2023-08-25T16:36:01.183Z,99942.39
2023-08-25T16:38:28.471Z,99943.35
2023-08-25T16:40:55.726Z,99943.87
2023-08-25T16:43:25.879Z,99943.26
2023-08-25T16:45:53.196Z,99944.65
2023-08-25T16:48:22.802Z,99949.05
2023-08-25T16:50:50.461Z,99948.80
2023-08-25T16:53:19.253Z,99954.39
2023-08-25T16:55:46.681Z,99952.81
2023-08-25T16:58:14.467Z,99952.95
2023-08-25T17:00:42.145Z,99957.48
2023-08-25T17:03:09.960Z,99957.20
2023-08-25T17:05:37.539Z,99959.75
2023-08-25T17:08:07.550Z,99961.17
2023-08-25T17:10:34.986Z,99960.36
2023-08-25T17:13:02.463Z,99965.48
2023-08-25T17:15:37.786Z,99970.38
2023-08-25T17:18:06.044Z,99971.92
2023-08-25T17:20:33.632Z,99972.52
2023-08-25T17:23:01.253Z,99972.63
2023-08-25T17:25:28.642Z,99975.09
2023-08-25T17:27:56.132Z,99975.48
2023-08-25T17:30:23.645Z,99977.55
2023-08-25T17:32:51.060Z,99976.27
2023-08-25T17:35:18.435Z,99977.14
2023-08-25T17:37:45.841Z,99981.90
2023-08-25T17:40:13.264Z,99988.98
2023-08-25T17:42:40.515Z,99992.65
2023-08-25T17:45:08.263Z,99993.73
2023-08-25T17:47:35.668Z,99996.25
2023-08-25T17:50:03.330Z,99998.23
2023-08-25T17:52:30.607Z,99999.59
2023-08-25T17:54:57.932Z,100000.02
2023-08-25T17:57:25.248Z,100001.10
2023-08-25T17:59:52.598Z,99999.04
2023-08-25T18:02:19.973Z,99996.63
2023-08-25T18:04:47.304Z,99991.26
2023-08-25T18:07:14.930Z,99994.56
2023-08-25T18:09:42.294Z,99991.10
2023-08-25T18:12:09.916Z,99992.77
2023-08-25T18:14:37.195Z,99996.16
2023-08-25T18:17:05.178Z,99998.67
2023-08-25T18:19:32.495Z,99999.05
2023-08-25T18:22:01.551Z,100002.10
2023-08-25T18:24:28.885Z,100001.42
2023-08-25T18:26:56.193Z,99998.85
2023-08-25T18:29:24.265Z,99998.85
2023-08-25T18:31:51.639Z,99996.78
2023-08-25T18:34:19.322Z,99994.59
2023-08-25T18:36:46.655Z,99992.27
2023-08-25T18:39:14.126Z,99992.64
2023-08-25T18:41:41.513Z,99994.64
2023-08-25T18:44:08.921Z,99992.88
2023-08-25T18:46:36.353Z,99989.80
2023-08-25T18:49:05.370Z,99992.36
2023-08-25T18:51:33.229Z,99992.08
2023-08-25T18:54:00.636Z,99987.33
2023-08-25T18:56:27.980Z,99984.52
2023-08-25T18:58:55.314Z,99985.19
2023-08-25T19:01:22.689Z,99987.49
2023-08-25T19:03:50.267Z,99988.17
2023-08-25T19:06:17.695Z,99986.74
2023-08-25T19:08:44.970Z,99981.33
2023-08-25T19:11:12.918Z,99972.48
2023-08-25T19:13:42.734Z,99971.46
2023-08-25T19:16:10.259Z,99970.29
2023-08-25T19:18:37.544Z,99975.88
2023-08-25T19:21:04.996Z,99983.71
2023-08-25T19:23:33.874Z,99986.91
2023-08-25T19:26:05.774Z,99984.30
2023-08-25T19:28:33.137Z,99978.06
2023-08-25T19:31:04.244Z,99976.16
2023-08-25T19:33:32.239Z,99982.25
2023-08-25T19:35:59.686Z,99981.27
2023-08-25T19:38:27.154Z,99978.05
2023-08-25T19:40:54.792Z,99982.23
2023-08-25T19:43:22.817Z,99986.84
2023-08-25T19:45:53.400Z,99983.63
2023-08-25T19:48:21.050Z,99979.80
2023-08-25T19:50:54.617Z,99978.55
2023-08-25T19:53:22.133Z,99983.17
2023-08-25T19:55:50.118Z,99989.67
2023-08-25T19:58:17.525Z,99995.02
2023-08-25T20:00:44.997Z,99996.19
2023-08-25T20:03:13.497Z,100000.19
2023-08-25T20:06:04.761Z,99999.98
2023-08-25T20:08:32.176Z,100002.93
2023-08-25T20:11:00.950Z,99999.35
2023-08-25T20:13:28.510Z,99995.63
2023-08-25T20:15:57.258Z,99998.30
2023-08-25T20:18:24.864Z,100001.90
2023-08-25T20:20:52.276Z,99995.27
2023-08-25T20:23:19.592Z,99999.72
2023-08-25T20:25:46.936Z,100001.03
2023-08-25T20:28:17.989Z,99997.48
2023-08-25T20:30:46.756Z,99991.86
2023-08-25T20:33:15.027Z,99987.67
2023-08-25T20:35:42.430Z,99983.92
2023-08-25T20:38:11.422Z,99982.78
2023-08-25T20:40:38.699Z,99985.69
2023-08-25T20:43:06.127Z,99985.17
2023-08-25T20:45:33.683Z,99984.80
2023-08-25T20:48:00.991Z,99986.75
2023-08-25T20:50:28.450Z,99986.27
2023-08-25T20:52:55.900Z,99983.83
2023-08-25T20:55:23.495Z,99987.27
2023-08-25T20:57:51.984Z,99987.11
2023-08-25T21:00:19.483Z,99988.73
2023-08-25T21:02:48.542Z,99993.42
2023-08-25T21:05:17.002Z,99991.19
2023-08-25T21:07:44.526Z,99989.77
2023-08-25T21:10:11.862Z,99982.37
2023-08-25T21:12:39.262Z,99982.00
2023-08-25T21:15:07.352Z,99977.39
2023-08-25T21:17:34.790Z,99975.45
2023-08-25T21:20:02.156Z,99975.24
2023-08-25T21:22:30.327Z,99977.86
2023-08-25T21:24:57.605Z,99979.73
2023-08-25T21:27:24.971Z,99976.77
2023-08-25T21:29:52.274Z,99975.92
2023-08-25T21:32:19.591Z,99977.20
2023-08-25T21:34:47.331Z,99970.37
2023-08-25T21:37:14.641Z,99962.37
2023-08-25T21:39:41.903Z,99958.81
2023-08-25T21:42:09.243Z,99959.99
2023-08-25T21:44:36.591Z,99959.52
2023-08-25T21:47:04.039Z,99957.45
2023-08-25T21:49:31.453Z,99953.34
2023-08-25T21:51:59.405Z,99950.10
2023-08-25T21:54:26.689Z,99947.77
2023-08-25T21:56:54.012Z,99947.65
2023-08-25T21:59:21.321Z,99950.13
2023-08-25T22:01:49.082Z,99945.98
2023-08-25T22:04:16.567Z,99939.95
2023-08-25T22:06:44.003Z,99932.58
2023-08-25T22:09:11.323Z,99934.96
2023-08-25T22:11:38.580Z,99931.26
2023-08-25T22:14:05.846Z,99928.23
2023-08-25T22:16:34.953Z,99922.30
2023-08-25T22:19:04.507Z,99915.98
2023-08-25T22:21:31.887Z,99910.09
2023-08-25T22:23:59.314Z,99912.11
2023-08-25T22:26:27.182Z,99913.36
2023-08-25T22:28:54.696Z,99912.88
2023-08-25T22:31:22.157Z,99912.55
2023-08-25T22:36:19.681Z,99918.24
2023-08-25T22:38:47.108Z,99914.92
2023-08-25T22:41:14.375Z,99915.58
2023-08-25T22:43:41.605Z,99916.45
2023-08-25T22:46:09.032Z,99917.55
2023-08-25T22:48:36.439Z,99919.21
2023-08-25T22:51:04.416Z,99923.48
2023-08-25T22:53:31.786Z,99923.69
2023-08-25T22:55:59.095Z,99922.69
2023-08-25T22:58:26.487Z,99922.05
2023-08-25T23:00:54.004Z,99922.58
2023-08-25T23:03:21.479Z,99920.70
2023-08-25T23:05:48.776Z,99913.31
2023-08-25T23:08:16.251Z,99904.88
2023-08-25T23:10:43.659Z,99907.38
2023-08-25T23:13:10.922Z,99907.92
2023-08-25T23:15:38.454Z,99907.48
2023-08-25T23:18:06.075Z,99908.20
2023-08-25T23:20:35.853Z,99905.90
2023-08-25T23:23:03.489Z,99907.33
2023-08-25T23:25:30.809Z,99903.98
2023-08-25T23:27:58.639Z,99900.50
2023-08-25T23:30:26.523Z,99897.04
2023-08-25T23:32:55.004Z,99895.85
2023-08-25T23:35:22.259Z,99897.48
2023-08-25T23:37:49.562Z,99897.77
2023-08-25T23:40:16.974Z,99897.56
2023-08-25T23:42:44.922Z,99897.77
2023-08-25T23:45:12.250Z,99899.52
2023-08-25T23:47:39.560Z,99898.89
2023-08-25T23:50:07.895Z,99902.40
2023-08-25T23:52:35.199Z,99905.45
2023-08-25T23:55:03.499Z,99902.02
2023-08-25T23:57:30.758Z,99900.83
2023-08-25T23:59:58.530Z,99900.48
